This is the latest recevied weather packets stored in our database for station/object DL6DJ-15. If no packets are shown the sender has not sent any weather packets the latest 10 day(s).
| Time | Temp. | Humidity | Pressure | Rain* | Wind** | Luminosity | Snow |
|---|---|---|---|---|---|---|---|
| 1788516451 | 29.44° C | 37% | 1019.5 hPa | - | - | - | - |
| 1788516150 | 28.89° C | 38% | 1019.6 hPa | - | - | - | - |
| 1788515850 | 29.44° C | 37% | 1019.8 hPa | - | - | - | - |
| 1788515550 | 29.44° C | 38% | 1019.9 hPa | - | - | - | - |
| 1788515249 | 30° C | 34% | 1019.9 hPa | - | - | - | - |
| 1788514949 | 31.11° C | 34% | 1020.1 hPa | - | - | - | - |
| 1788514649 | 31.11° C | 35% | 1020.2 hPa | - | - | - | - |
| 1788514348 | 30.56° C | 35% | 1020.3 hPa | - | - | - | - |
| 1788514048 | 31.11° C | 35% | 1020.4 hPa | - | - | - | - |
| 1788513747 | 31.11° C | 36% | 1020.4 hPa | - | - | - | - |
| 1788513447 | 31.11° C | 34% | 1020.5 hPa | - | - | - | - |
| 1788513147 | 32.22° C | 33% | 1020.6 hPa | - | - | - | - |
| 1788512846 | 31.11° C | 34% | 1020.7 hPa | - | - | - | - |
| 1788512546 | 30.56° C | 35% | 1020.7 hPa | - | - | - | - |
| 1788512246 | 31.11° C | 35% | 1020.8 hPa | - | - | - | - |
| 1788511945 | 31.11° C | 35% | 1020.8 hPa | - | - | - | - |
| 1788511645 | 30.56° C | 35% | 1020.8 hPa | - | - | - | - |
| 1788511345 | 30.56° C | 36% | 1021 hPa | - | - | - | - |
| 1788511044 | 31.11° C | 35% | 1021 hPa | - | - | - | - |
| 1788510744 | 30° C | 36% | 1020.9 hPa | - | - | - | - |
| 1788510443 | 30° C | 37% | 1021 hPa | - | - | - | - |
| 1788510143 | 29.44° C | 37% | 1021 hPa | - | - | - | - |
| 1788509842 | 28.89° C | 39% | 1021.1 hPa | - | - | - | - |
| 1788509542 | 29.44° C | 39% | 1021.1 hPa | - | - | - | - |
| 1788509241 | 27.22° C | 42% | 1021 hPa | - | - | - | - |
* Rain since midnight (hover to see other rain measurements)
** Current wind speed in m/s (hover to see current wind gust speed)